createdAt,value
2022-09-28T00:01:23.507Z,100.00
2022-09-28T00:03:54.468Z,100.00
2022-09-28T00:06:24.554Z,100.00
2022-09-28T00:08:52.932Z,100.00
2022-09-28T00:11:22.856Z,100.00
2022-09-28T00:13:53.403Z,100.00
2022-09-28T00:16:24.507Z,100.00
2022-09-28T00:18:54.233Z,99.88
2022-09-28T00:21:24.597Z,99.27
2022-09-28T00:24:13.163Z,99.07
2022-09-28T00:26:47.145Z,98.54
2022-09-28T00:29:16.909Z,98.38
2022-09-28T00:31:45.619Z,98.01
2022-09-28T00:34:14.930Z,97.15
2022-09-28T00:36:47.595Z,95.73
2022-09-28T00:39:16.305Z,95.29
2022-09-28T00:41:45.410Z,95.08
2022-09-28T00:44:42.092Z,95.46
2022-09-28T00:47:25.745Z,95.47
2022-09-28T00:50:00.083Z,95.50
2022-09-28T00:52:41.258Z,95.88
2022-09-28T00:55:14.167Z,96.00
2022-09-28T00:57:47.635Z,96.27
2022-09-28T01:00:16.057Z,95.87
2022-09-28T01:02:45.729Z,95.46
2022-09-28T01:05:15.086Z,95.45
2022-09-28T01:07:45.059Z,95.67
2022-09-28T01:10:14.272Z,95.97
2022-09-28T01:12:42.223Z,96.11
2022-09-28T01:15:11.031Z,96.09
2022-09-28T01:18:07.377Z,96.31
2022-09-28T01:21:02.966Z,96.49
2022-09-28T01:23:44.187Z,96.00
2022-09-28T01:26:14.969Z,95.93
2022-09-28T01:28:43.869Z,95.54
2022-09-28T01:31:17.997Z,95.49
2022-09-28T01:33:54.945Z,95.65
2022-09-28T01:36:39.828Z,95.99
2022-09-28T01:39:24.282Z,96.62
2022-09-28T01:41:55.848Z,96.56
2022-09-28T01:44:29.048Z,96.50
2022-09-28T01:47:03.746Z,96.57
2022-09-28T01:49:40.913Z,96.70
2022-09-28T01:52:33.466Z,96.58
2022-09-28T01:55:12.305Z,96.51
2022-09-28T01:57:49.042Z,96.43
2022-09-28T02:00:19.738Z,96.65
2022-09-28T02:02:56.258Z,98.04
2022-09-28T02:05:58.906Z,97.65
2022-09-28T02:08:31.755Z,98.22
2022-09-28T02:11:17.309Z,98.24
2022-09-28T02:14:06.856Z,98.08
2022-09-28T02:16:44.049Z,97.88
2022-09-28T02:19:23.630Z,97.37
2022-09-28T02:22:03.092Z,97.52
2022-09-28T02:24:53.805Z,97.14
2022-09-28T02:27:36.592Z,96.49
2022-09-28T02:30:06.540Z,96.82
2022-09-28T02:32:40.421Z,97.14
2022-09-28T02:35:11.432Z,96.97
2022-09-28T02:37:40.594Z,97.24
2022-09-28T02:40:13.933Z,97.48
2022-09-28T02:43:13.051Z,97.12
2022-09-28T02:46:13.593Z,96.68
2022-09-28T02:49:21.382Z,97.03
2022-09-28T02:52:04.495Z,97.62
2022-09-28T02:55:01.803Z,97.98
2022-09-28T02:57:50.903Z,98.26
2022-09-28T03:00:22.919Z,98.01
2022-09-28T03:03:09.419Z,97.96
2022-09-28T03:05:50.934Z,98.21
2022-09-28T03:08:32.763Z,97.94
2022-09-28T03:11:16.770Z,97.86
2022-09-28T03:13:49.545Z,97.86
2022-09-28T03:16:20.053Z,97.76
2022-09-28T03:18:49.496Z,97.89
2022-09-28T03:21:17.563Z,98.48
2022-09-28T03:23:47.465Z,98.66
2022-09-28T03:26:18.081Z,98.52
2022-09-28T03:28:46.102Z,98.64
2022-09-28T03:31:17.473Z,98.51
2022-09-28T03:33:45.411Z,98.58
2022-09-28T03:36:15.256Z,98.87
2022-09-28T03:38:43.338Z,98.44
2022-09-28T03:41:11.851Z,98.33
2022-09-28T03:43:43.022Z,97.85
2022-09-28T03:46:11.503Z,97.93
2022-09-28T03:48:43.529Z,98.24
2022-09-28T03:51:13.012Z,98.16
2022-09-28T03:53:41.272Z,98.52
2022-09-28T03:56:15.370Z,98.44
2022-09-28T03:58:43.351Z,98.39
2022-09-28T04:01:17.664Z,98.26
2022-09-28T04:03:47.475Z,98.29
2022-09-28T04:06:15.523Z,97.94
2022-09-28T04:08:43.702Z,97.98
2022-09-28T04:11:12.182Z,98.35
2022-09-28T04:13:40.124Z,98.48
2022-09-28T04:16:11.920Z,98.34
2022-09-28T04:18:42.696Z,97.98
2022-09-28T04:21:29.602Z,98.35
2022-09-28T04:24:04.599Z,98.18
2022-09-28T04:26:32.551Z,98.07
2022-09-28T04:29:16.062Z,98.00
2022-09-28T04:31:56.208Z,98.16
2022-09-28T04:34:39.590Z,98.48
2022-09-28T04:37:10.239Z,99.56
2022-09-28T04:39:42.300Z,98.97
2022-09-28T04:42:13.446Z,98.76
2022-09-28T04:44:41.248Z,98.49
2022-09-28T04:47:10.590Z,98.64
2022-09-28T04:49:54.052Z,98.45
2022-09-28T04:52:27.661Z,98.65
2022-09-28T04:54:55.764Z,98.49
2022-09-28T04:57:25.900Z,99.27
2022-09-28T04:59:58.778Z,99.05
2022-09-28T05:02:31.014Z,99.14
2022-09-28T05:05:05.199Z,99.20
2022-09-28T05:07:52.321Z,99.14
2022-09-28T05:10:20.352Z,99.34
2022-09-28T05:12:48.433Z,99.14
2022-09-28T05:15:17.537Z,99.02
2022-09-28T05:17:45.435Z,98.73
2022-09-28T05:20:22.074Z,98.80
2022-09-28T05:22:49.983Z,98.55
2022-09-28T05:25:18.815Z,98.11
2022-09-28T05:28:07.284Z,97.66
2022-09-28T05:30:42.319Z,97.52
2022-09-28T05:33:42.594Z,97.88
2022-09-28T05:36:12.842Z,97.39
2022-09-28T05:38:40.807Z,96.97
2022-09-28T05:41:08.899Z,96.73
2022-09-28T05:43:36.997Z,96.80
2022-09-28T05:46:06.928Z,97.03
2022-09-28T05:48:41.802Z,96.94
2022-09-28T05:51:10.506Z,97.24
2022-09-28T05:53:38.525Z,97.70
2022-09-28T05:56:06.664Z,97.76
2022-09-28T05:58:36.758Z,97.52
2022-09-28T06:01:04.871Z,96.83
2022-09-28T06:03:32.862Z,96.91
2022-09-28T06:06:02.741Z,96.73
2022-09-28T06:08:32.892Z,96.51
2022-09-28T06:11:19.629Z,96.60
2022-09-28T06:13:48.331Z,96.30
2022-09-28T06:16:16.886Z,96.55
2022-09-28T06:18:44.946Z,96.75
2022-09-28T06:21:32.756Z,96.14
2022-09-28T06:24:00.703Z,96.00
2022-09-28T06:26:28.828Z,95.79
2022-09-28T06:28:56.835Z,95.67
2022-09-28T06:31:25.261Z,95.83
2022-09-28T06:33:55.286Z,95.78
2022-09-28T06:36:24.191Z,95.23
2022-09-28T06:38:52.147Z,95.41
2022-09-28T06:41:20.132Z,95.78
2022-09-28T06:43:48.916Z,95.65
2022-09-28T06:46:58.530Z,95.35
2022-09-28T06:49:51.388Z,95.06
2022-09-28T06:52:28.267Z,94.27
2022-09-28T06:55:06.498Z,93.68
2022-09-28T06:57:45.228Z,93.32
2022-09-28T07:00:14.134Z,91.65
2022-09-28T07:02:44.865Z,91.14
2022-09-28T07:05:56.274Z,91.51
2022-09-28T07:09:24.216Z,90.25
2022-09-28T07:12:21.939Z,89.31
2022-09-28T07:15:00.874Z,89.40
2022-09-28T07:17:29.860Z,89.46
2022-09-28T07:20:10.738Z,89.40
2022-09-28T07:22:43.831Z,88.61
2022-09-28T07:25:18.194Z,88.26
2022-09-28T07:27:51.024Z,86.67
2022-09-28T07:30:45.299Z,85.89
2022-09-28T07:33:17.971Z,85.36
2022-09-28T07:35:55.671Z,85.51
2022-09-28T07:38:29.259Z,85.91
2022-09-28T07:41:14.359Z,86.29
2022-09-28T07:43:49.954Z,86.37
2022-09-28T07:46:18.037Z,86.74
2022-09-28T07:48:56.147Z,86.62
2022-09-28T07:51:59.180Z,86.14
2022-09-28T07:54:31.318Z,87.14
2022-09-28T07:56:59.132Z,87.54
2022-09-28T07:59:46.117Z,87.42
2022-09-28T08:02:34.188Z,87.34
2022-09-28T08:05:02.915Z,87.03
2022-09-28T08:07:32.611Z,87.61
2022-09-28T08:10:05.643Z,87.94
2022-09-28T08:13:04.746Z,87.86
2022-09-28T08:15:38.336Z,85.32
2022-09-28T08:18:25.320Z,86.67
2022-09-28T08:21:12.442Z,87.08
2022-09-28T08:23:40.428Z,86.68
2022-09-28T08:26:12.090Z,86.15
2022-09-28T08:28:45.220Z,85.86
2022-09-28T08:31:32.300Z,85.41
2022-09-28T08:34:11.428Z,85.14
2022-09-28T08:37:11.754Z,85.28
2022-09-28T08:39:58.256Z,85.89
2022-09-28T08:42:42.426Z,85.28
2022-09-28T08:45:19.684Z,84.49
2022-09-28T08:48:40.408Z,83.66
2022-09-28T08:51:34.925Z,83.47
2022-09-28T08:54:26.127Z,82.89
2022-09-28T08:57:11.329Z,81.66
2022-09-28T08:59:53.581Z,81.98
2022-09-28T09:02:36.456Z,82.59
2022-09-28T09:06:00.686Z,82.30
2022-09-28T09:09:01.107Z,82.20
2022-09-28T09:12:03.592Z,81.44
2022-09-28T09:14:57.018Z,80.97
2022-09-28T09:17:46.833Z,80.61
2022-09-28T09:20:36.717Z,79.51
2022-09-28T09:24:03.674Z,76.35
2022-09-28T09:26:39.695Z,75.25
2022-09-28T09:29:18.479Z,75.81
2022-09-28T09:32:08.276Z,75.95
2022-09-28T09:34:55.445Z,76.65
2022-09-28T09:38:17.514Z,76.57
2022-09-28T09:41:42.933Z,76.08
2022-09-28T09:44:48.859Z,75.46
2022-09-28T09:47:46.724Z,75.06
2022-09-28T09:50:53.549Z,73.86
2022-09-28T09:53:26.685Z,74.65
2022-09-28T09:56:00.093Z,74.37
2022-09-28T09:58:48.950Z,74.30
2022-09-28T10:01:31.455Z,74.64
2022-09-28T10:04:29.233Z,74.38
2022-09-28T10:07:04.565Z,73.99
2022-09-28T10:09:39.713Z,73.35
2022-09-28T10:12:26.475Z,72.93
2022-09-28T10:14:56.116Z,72.74
2022-09-28T10:17:27.611Z,69.62
2022-09-28T10:20:38.037Z,69.22
2022-09-28T10:23:37.461Z,69.61
2022-09-28T10:26:37.536Z,68.39
2022-09-28T10:29:15.891Z,69.43
2022-09-28T10:31:48.985Z,69.49
2022-09-28T10:34:29.689Z,68.31
2022-09-28T10:37:03.910Z,66.84
2022-09-28T10:39:55.775Z,66.83
2022-09-28T10:42:30.745Z,64.00
2022-09-28T10:45:05.391Z,64.15
2022-09-28T10:47:36.983Z,63.05
2022-09-28T10:50:27.176Z,62.10
2022-09-28T10:53:20.747Z,63.64
2022-09-28T10:56:21.279Z,62.99
2022-09-28T10:58:52.313Z,61.71
2022-09-28T11:01:33.121Z,62.32
2022-09-28T11:04:04.734Z,62.70
2022-09-28T11:06:37.446Z,60.65
2022-09-28T11:09:29.787Z,59.43
2022-09-28T11:12:06.027Z,59.20
2022-09-28T11:14:42.436Z,59.46
2022-09-28T11:17:27.459Z,58.90
2022-09-28T11:19:57.735Z,58.04
2022-09-28T11:22:29.104Z,57.52
2022-09-28T11:25:19.008Z,58.69
2022-09-28T11:27:50.762Z,60.20
2022-09-28T11:30:42.758Z,59.52
2022-09-28T11:33:40.405Z,58.71
2022-09-28T11:37:07.159Z,60.20
2022-09-28T11:39:39.601Z,60.97
2022-09-28T11:42:18.703Z,60.28
2022-09-28T11:44:49.041Z,59.44
2022-09-28T11:47:18.350Z,59.48
2022-09-28T11:50:01.557Z,59.50
2022-09-28T11:52:52.066Z,58.91
2022-09-28T11:55:40.203Z,59.67
2022-09-28T11:58:41.240Z,60.04
2022-09-28T12:01:15.433Z,59.84
2022-09-28T12:04:20.703Z,58.97
2022-09-28T12:07:00.129Z,59.73
2022-09-28T12:09:38.186Z,60.12
2022-09-28T12:12:25.629Z,60.03
2022-09-28T12:15:01.726Z,59.95
2022-09-28T12:17:43.412Z,59.26
2022-09-28T12:20:23.978Z,58.75
2022-09-28T12:23:16.695Z,57.33
2022-09-28T12:25:51.784Z,56.83
2022-09-28T12:28:39.977Z,57.66
2022-09-28T12:31:45.850Z,56.53
2022-09-28T12:34:13.924Z,57.37
2022-09-28T12:36:47.537Z,57.97
2022-09-28T12:39:47.004Z,58.25
2022-09-28T12:42:44.411Z,57.65
2022-09-28T12:45:38.910Z,57.57
2022-09-28T12:48:27.016Z,57.81
2022-09-28T12:51:31.350Z,57.03
2022-09-28T12:54:22.997Z,57.50
2022-09-28T12:57:09.523Z,57.18
2022-09-28T12:59:44.462Z,56.24
2022-09-28T13:02:46.227Z,56.07
2022-09-28T13:05:21.643Z,56.70
2022-09-28T13:08:02.556Z,56.52
2022-09-28T13:10:40.534Z,56.52
2022-09-28T13:13:42.453Z,57.20
2022-09-28T13:16:27.188Z,57.52
2022-09-28T13:19:07.148Z,56.38
2022-09-28T13:22:08.755Z,57.17
2022-09-28T13:24:44.361Z,57.58
2022-09-28T13:27:17.389Z,57.37
2022-09-28T13:29:49.236Z,57.66
2022-09-28T13:32:18.559Z,58.74
2022-09-28T13:34:49.012Z,58.90
2022-09-28T13:37:25.954Z,58.38
2022-09-28T13:40:05.956Z,58.86
2022-09-28T13:42:46.270Z,57.08
2022-09-28T13:45:20.152Z,56.86
2022-09-28T13:48:14.128Z,57.42
2022-09-28T13:51:08.777Z,58.67
2022-09-28T13:53:51.936Z,58.85
2022-09-28T13:56:26.631Z,57.27
2022-09-28T13:59:18.998Z,57.03
2022-09-28T14:02:20.071Z,57.50
2022-09-28T14:04:53.888Z,58.43
2022-09-28T14:07:38.572Z,59.08
2022-09-28T14:10:53.373Z,58.17
2022-09-28T14:13:43.158Z,58.37
2022-09-28T14:16:31.221Z,59.05
2022-09-28T14:19:14.241Z,58.98
2022-09-28T14:21:54.626Z,58.81
2022-09-28T14:24:28.443Z,57.14
2022-09-28T14:26:56.247Z,58.39
2022-09-28T14:29:28.770Z,57.52
2022-09-28T14:31:59.055Z,57.69
2022-09-28T14:34:34.158Z,57.42
2022-09-28T14:37:24.577Z,58.13
2022-09-28T14:40:11.104Z,57.71
2022-09-28T14:42:40.326Z,57.65
2022-09-28T14:45:08.342Z,58.37
2022-09-28T14:48:20.529Z,56.70
2022-09-28T14:50:50.201Z,55.40
2022-09-28T14:53:22.223Z,55.08
2022-09-28T14:55:55.669Z,55.81
2022-09-28T14:58:27.557Z,56.18
2022-09-28T15:01:03.041Z,56.77
2022-09-28T15:03:34.566Z,55.88
2022-09-28T15:06:02.378Z,55.38
2022-09-28T15:08:38.605Z,56.09
2022-09-28T15:11:12.461Z,57.29
2022-09-28T15:13:40.968Z,57.52
2022-09-28T15:16:13.363Z,56.68
2022-09-28T15:18:59.254Z,56.56
2022-09-28T15:21:56.797Z,57.32
2022-09-28T15:24:35.001Z,57.46
2022-09-28T15:27:23.692Z,58.25
2022-09-28T15:30:26.703Z,58.52
2022-09-28T15:32:57.076Z,59.17
2022-09-28T15:35:27.184Z,59.46
2022-09-28T15:37:55.736Z,60.19
2022-09-28T15:40:31.848Z,60.54
2022-09-28T15:43:00.663Z,60.67
2022-09-28T15:45:38.585Z,60.79
2022-09-28T15:48:31.308Z,61.25
2022-09-28T15:51:11.067Z,61.32
2022-09-28T15:54:03.014Z,62.06
2022-09-28T15:56:32.263Z,62.43
2022-09-28T15:59:15.110Z,62.95
2022-09-28T16:01:44.827Z,63.10
2022-09-28T16:04:51.781Z,63.28
2022-09-28T16:07:21.214Z,63.87
2022-09-28T16:10:21.268Z,64.35
2022-09-28T16:12:54.343Z,64.67
2022-09-28T16:15:34.513Z,64.91
2022-09-28T16:18:06.808Z,65.11
2022-09-28T16:20:37.826Z,65.67
2022-09-28T16:23:26.017Z,66.12
2022-09-28T16:26:05.428Z,66.45
2022-09-28T16:28:35.634Z,66.56
2022-09-28T16:31:12.669Z,66.74
2022-09-28T16:33:40.612Z,67.07
2022-09-28T16:36:14.370Z,67.54
2022-09-28T16:38:46.257Z,67.96
2022-09-28T16:41:20.640Z,68.21
2022-09-28T16:43:49.073Z,68.31
2022-09-28T16:46:17.856Z,68.34
2022-09-28T16:48:51.058Z,68.63
2022-09-28T16:51:22.685Z,68.92
2022-09-28T16:54:09.380Z,69.29
2022-09-28T16:56:37.714Z,70.51
2022-09-28T16:59:05.921Z,70.68
2022-09-28T17:01:34.379Z,70.71
2022-09-28T17:04:02.518Z,72.21
2022-09-28T17:06:31.352Z,71.74
2022-09-28T17:08:59.248Z,72.91
2022-09-28T17:11:27.834Z,72.91
2022-09-28T17:13:59.098Z,72.87
2022-09-28T17:19:25.042Z,73.41
2022-09-28T17:21:53.517Z,73.39
2022-09-28T17:24:21.790Z,73.84
2022-09-28T17:26:52.052Z,73.84
2022-09-28T17:29:19.909Z,73.94
2022-09-28T17:31:48.321Z,73.87
2022-09-28T17:34:16.792Z,76.11
2022-09-28T17:36:45.412Z,75.67
2022-09-28T17:39:15.998Z,76.51
2022-09-28T17:41:44.013Z,77.17
2022-09-28T17:44:16.399Z,78.88
2022-09-28T17:46:48.754Z,78.85
2022-09-28T17:49:17.411Z,78.74
2022-09-28T17:51:45.580Z,80.23
2022-09-28T17:54:13.767Z,79.67
2022-09-28T17:56:42.723Z,79.84
2022-09-28T17:59:19.219Z,79.84
2022-09-28T18:01:48.360Z,79.14
2022-09-28T18:04:39.656Z,79.42
2022-09-28T18:07:05.584Z,79.58
2022-09-28T18:09:33.728Z,80.19
2022-09-28T18:12:05.198Z,79.89
2022-09-28T18:14:34.001Z,80.82
2022-09-28T18:17:02.023Z,80.68
2022-09-28T18:19:32.314Z,80.20
2022-09-28T18:22:01.572Z,79.98
2022-09-28T18:24:29.973Z,80.73
2022-09-28T18:26:58.003Z,80.59
2022-09-28T18:29:28.025Z,82.25
2022-09-28T18:31:57.930Z,81.13
2022-09-28T18:34:27.084Z,80.65
2022-09-28T18:36:58.368Z,81.36
2022-09-28T18:39:31.030Z,81.72
2022-09-28T18:41:58.959Z,82.06
2022-09-28T18:44:26.970Z,81.90
2022-09-28T18:46:54.932Z,81.58
2022-09-28T18:49:23.583Z,81.58
2022-09-28T18:51:51.497Z,81.43
2022-09-28T18:54:20.099Z,81.84
2022-09-28T18:56:48.205Z,82.30
2022-09-28T18:59:16.108Z,82.09
2022-09-28T19:01:44.054Z,82.27
2022-09-28T19:04:13.749Z,82.54
2022-09-28T19:06:42.923Z,82.83
2022-09-28T19:09:11.170Z,82.67
2022-09-28T19:11:39.082Z,82.56
2022-09-28T19:14:07.153Z,82.50
2022-09-28T19:16:34.913Z,82.38
2022-09-28T19:19:03.500Z,82.32
2022-09-28T19:21:31.694Z,82.29
2022-09-28T19:24:04.211Z,82.33
2022-09-28T19:26:32.983Z,82.28
2022-09-28T19:29:02.986Z,82.76
2022-09-28T19:31:32.147Z,83.05
2022-09-28T19:34:00.620Z,82.84
2022-09-28T19:36:29.403Z,83.00
2022-09-28T19:39:02.202Z,82.82
2022-09-28T19:41:44.386Z,82.57
2022-09-28T19:44:24.924Z,82.58
2022-09-28T19:47:06.955Z,83.34
2022-09-28T19:49:38.941Z,82.65
2022-09-28T19:52:16.109Z,82.55
2022-09-28T19:54:45.572Z,82.27
2022-09-28T19:57:16.060Z,82.45
2022-09-28T19:59:44.398Z,82.70
2022-09-28T20:02:13.329Z,83.11
2022-09-28T20:04:41.297Z,83.08
2022-09-28T20:07:09.309Z,83.15
2022-09-28T20:09:37.187Z,83.06
2022-09-28T20:12:05.122Z,83.18
2022-09-28T20:14:36.531Z,83.04
2022-09-28T20:17:05.931Z,83.38
2022-09-28T20:19:35.135Z,83.65
2022-09-28T20:22:03.711Z,84.34
2022-09-28T20:24:33.004Z,84.57
2022-09-28T20:27:01.732Z,84.93
2022-09-28T20:29:33.835Z,84.86
2022-09-28T20:32:04.263Z,84.85
2022-09-28T20:34:34.114Z,84.65
2022-09-28T20:37:02.073Z,84.42
2022-09-28T20:39:30.137Z,84.44
2022-09-28T20:41:58.115Z,84.28
2022-09-28T20:44:25.967Z,84.59
2022-09-28T20:46:53.787Z,85.25
2022-09-28T20:49:21.851Z,85.25
2022-09-28T20:51:49.666Z,85.45
2022-09-28T20:54:17.621Z,85.58
2022-09-28T20:56:48.114Z,85.65
2022-09-28T20:59:16.505Z,85.74
2022-09-28T21:01:44.625Z,85.60
2022-09-28T21:04:12.987Z,85.49
2022-09-28T21:06:42.211Z,85.35
2022-09-28T21:09:11.638Z,85.34
2022-09-28T21:11:40.353Z,85.31
2022-09-28T21:14:10.519Z,85.74
2022-09-28T21:16:39.174Z,86.29
2022-09-28T21:19:07.160Z,86.37
2022-09-28T21:21:35.325Z,86.34
2022-09-28T21:24:03.562Z,86.41
2022-09-28T21:26:33.116Z,86.24
2022-09-28T21:29:06.701Z,87.55
2022-09-28T21:31:40.356Z,86.61
2022-09-28T21:34:19.414Z,86.43
2022-09-28T21:36:51.472Z,86.22
2022-09-28T21:39:20.294Z,86.30
2022-09-28T21:41:48.335Z,86.53
2022-09-28T21:44:16.258Z,86.61
2022-09-28T21:46:44.197Z,86.67
2022-09-28T21:49:12.758Z,86.57
2022-09-28T21:51:40.943Z,86.40
2022-09-28T21:54:08.864Z,86.40
2022-09-28T21:56:36.755Z,86.15
2022-09-28T21:59:04.607Z,86.27
2022-09-28T22:01:32.583Z,86.59
2022-09-28T22:04:01.530Z,87.08
2022-09-28T22:06:29.796Z,87.14
2022-09-28T22:08:58.268Z,87.03
2022-09-28T22:11:28.420Z,86.80
2022-09-28T22:13:59.424Z,86.66
2022-09-28T22:16:30.525Z,86.54
2022-09-28T22:18:59.981Z,86.35
2022-09-28T22:21:31.873Z,86.15
2022-09-28T22:24:05.195Z,86.35
2022-09-28T22:26:35.611Z,86.53
2022-09-28T22:29:07.007Z,86.66
2022-09-28T22:31:40.395Z,86.84
2022-09-28T22:34:09.647Z,86.60
2022-09-28T22:36:37.573Z,86.55
2022-09-28T22:39:05.644Z,86.42
2022-09-28T22:41:33.871Z,86.61
2022-09-28T22:44:01.931Z,86.37
2022-09-28T22:46:32.206Z,86.60
2022-09-28T22:49:00.764Z,86.93
2022-09-28T22:51:29.856Z,87.13
2022-09-28T22:53:58.195Z,87.14
2022-09-28T22:56:26.337Z,87.08
2022-09-28T22:58:54.507Z,86.97
2022-09-28T23:01:27.968Z,86.83
2022-09-28T23:03:57.104Z,86.63
2022-09-28T23:06:27.832Z,86.49
2022-09-28T23:08:56.112Z,86.54
2022-09-28T23:11:24.000Z,86.87
2022-09-28T23:13:57.561Z,87.03
2022-09-28T23:16:26.828Z,87.13
2022-09-28T23:18:56.044Z,87.11
2022-09-28T23:21:26.225Z,87.01
2022-09-28T23:23:57.083Z,86.71
2022-09-28T23:26:26.677Z,86.54
2022-09-28T23:28:55.630Z,86.64
2022-09-28T23:31:25.887Z,86.42
2022-09-28T23:34:02.026Z,86.20
2022-09-28T23:36:30.166Z,86.55
2022-09-28T23:38:58.195Z,86.68
2022-09-28T23:41:25.972Z,86.65
2022-09-28T23:43:53.850Z,86.69
2022-09-28T23:46:21.738Z,86.68
2022-09-28T23:48:50.536Z,86.49
2022-09-28T23:51:19.017Z,86.14
2022-09-28T23:53:46.832Z,85.87
2022-09-28T23:56:14.721Z,85.75
2022-09-28T23:58:42.886Z,85.61
